createdAt,value
2018-04-08T00:00:13.262Z,52.13
2018-04-08T00:01:13.338Z,52.15
2018-04-08T00:02:13.394Z,52.03
2018-04-08T00:03:13.458Z,52.03
2018-04-08T00:04:13.518Z,51.93
2018-04-08T00:05:13.586Z,52.03
2018-04-08T00:06:13.655Z,52.13
2018-04-08T00:07:13.718Z,52.15
2018-04-08T00:08:13.778Z,51.97
2018-04-08T00:09:13.848Z,51.87
2018-04-08T00:10:13.906Z,52.15
2018-04-08T00:11:13.974Z,52.34
2018-04-08T00:12:14.042Z,52.06
2018-04-08T00:13:14.098Z,51.84
2018-04-08T00:14:14.163Z,52.42
2018-04-08T00:15:14.231Z,52.03
2018-04-08T00:16:14.606Z,52.89
2018-04-08T00:17:14.358Z,52.13
2018-04-08T00:18:14.422Z,52.22
2018-04-08T00:19:14.491Z,52.80
2018-04-08T00:20:14.554Z,52.61
2018-04-08T00:21:14.623Z,52.13
2018-04-08T00:22:14.694Z,52.51
2018-04-08T00:23:14.746Z,52.32
2018-04-08T00:24:14.811Z,52.42
2018-04-08T00:25:14.875Z,52.89
2018-04-08T00:26:14.942Z,52.42
2018-04-08T00:27:15.014Z,52.51
2018-04-08T00:28:15.069Z,52.22
2018-04-08T00:29:15.131Z,52.13
2018-04-08T00:30:15.199Z,51.93
2018-04-08T00:31:15.259Z,52.22
2018-04-08T00:32:15.487Z,51.93
2018-04-08T00:33:15.399Z,52.32
2018-04-08T00:34:15.455Z,52.22
2018-04-08T00:35:15.522Z,52.13
2018-04-08T00:36:15.583Z,52.22
2018-04-08T00:37:15.663Z,52.03
2018-04-08T00:38:15.720Z,51.84
2018-04-08T00:39:15.779Z,51.84
2018-04-08T00:40:15.843Z,52.03
2018-04-08T00:41:15.911Z,52.22
2018-04-08T00:42:15.976Z,52.03
2018-04-08T00:43:16.159Z,52.22
2018-04-08T00:44:16.099Z,52.61
2018-04-08T00:45:16.163Z,52.22
2018-04-08T00:46:16.235Z,52.51
2018-04-08T00:47:16.292Z,53.08
2018-04-08T00:48:16.379Z,52.58
2018-04-08T00:49:16.431Z,52.96
2018-04-08T00:50:16.497Z,53.44
2018-04-08T00:51:16.555Z,53.82
2018-04-08T00:52:16.620Z,54.49
2018-04-08T00:53:16.687Z,55.07
2018-04-08T00:54:16.752Z,54.97
2018-04-08T00:55:16.808Z,54.85
2018-04-08T00:56:16.910Z,55.13
2018-04-08T00:57:16.936Z,55.04
2018-04-08T00:58:17.008Z,55.61
2018-04-08T00:59:17.074Z,56.18
2018-04-08T01:00:17.132Z,55.80
2018-04-08T01:01:17.196Z,55.96
2018-04-08T01:02:17.272Z,56.18
2018-04-08T01:03:17.324Z,56.63
2018-04-08T01:04:17.512Z,57.50
2018-04-08T01:05:17.452Z,57.87
2018-04-08T01:06:17.521Z,58.83
2018-04-08T01:07:17.580Z,57.68
2018-04-08T01:08:17.644Z,58.16
2018-04-08T01:09:17.729Z,58.26
2018-04-08T01:10:17.788Z,58.64
2018-04-08T01:11:17.840Z,58.33
2018-04-08T01:12:17.905Z,58.99
2018-04-08T01:13:17.968Z,59.76
2018-04-08T01:14:18.040Z,59.56
2018-04-08T01:15:18.105Z,59.95
2018-04-08T01:16:18.164Z,59.66
2018-04-08T01:17:18.229Z,59.09
2018-04-08T01:18:18.297Z,59.38
2018-04-08T01:19:18.397Z,59.09
2018-04-08T01:20:18.418Z,59.56
2018-04-08T01:21:18.490Z,59.66
2018-04-08T01:22:18.557Z,59.66
2018-04-08T01:23:18.609Z,60.33
2018-04-08T01:24:18.689Z,60.42
2018-04-08T01:25:18.761Z,60.30
2018-04-08T01:26:18.809Z,61.07
2018-04-08T01:27:18.865Z,61.54
2018-04-08T01:28:18.937Z,60.87
2018-04-08T01:29:19.005Z,62.02
2018-04-08T01:30:19.081Z,61.44
2018-04-08T01:31:19.126Z,61.54
2018-04-08T01:32:19.193Z,61.54
2018-04-08T01:33:19.261Z,61.44
2018-04-08T01:34:19.605Z,61.73
2018-04-08T01:35:19.382Z,62.40
2018-04-08T01:36:19.458Z,62.49
2018-04-08T01:37:19.514Z,62.49
2018-04-08T01:38:19.574Z,62.49
2018-04-08T01:39:19.654Z,62.84
2018-04-08T01:40:19.735Z,63.89
2018-04-08T01:41:19.790Z,63.04
2018-04-08T01:42:19.838Z,62.97
2018-04-08T01:43:19.914Z,62.56
2018-04-08T01:44:19.970Z,62.94
2018-04-08T01:45:20.038Z,62.65
2018-04-08T01:46:20.085Z,63.32
2018-04-08T01:47:20.182Z,64.18
2018-04-08T01:48:20.210Z,63.60
2018-04-08T01:49:20.277Z,63.42
2018-04-08T01:50:20.678Z,64.85
2018-04-08T01:51:20.406Z,64.37
2018-04-08T01:52:20.474Z,64.47
2018-04-08T01:53:20.538Z,65.42
2018-04-08T01:54:20.614Z,65.89
2018-04-08T01:55:20.678Z,66.56
2018-04-08T01:56:20.762Z,65.23
2018-04-08T01:57:20.798Z,65.23
2018-04-08T01:58:20.851Z,64.65
2018-04-08T01:59:20.934Z,64.85
2018-04-08T02:00:21.010Z,64.65
2018-04-08T02:01:21.058Z,64.56
2018-04-08T02:02:21.110Z,65.52
2018-04-08T02:03:21.179Z,66.18
2018-04-08T02:04:21.238Z,65.70
2018-04-08T02:05:21.306Z,65.04
2018-04-08T02:06:21.676Z,64.37
2018-04-08T02:07:21.433Z,64.75
2018-04-08T02:08:21.502Z,65.42
2018-04-08T02:09:21.558Z,65.23
2018-04-08T02:10:21.623Z,64.56
2018-04-08T02:11:21.699Z,64.37
2018-04-08T02:12:21.759Z,64.65
2018-04-08T02:13:21.815Z,64.75
2018-04-08T02:14:21.875Z,64.37
2018-04-08T02:15:21.939Z,65.33
2018-04-08T02:16:22.012Z,65.89
2018-04-08T02:17:22.079Z,65.70
2018-04-08T02:18:22.132Z,65.99
2018-04-08T02:19:22.195Z,65.61
2018-04-08T02:20:22.259Z,65.99
2018-04-08T02:21:22.332Z,65.77
2018-04-08T02:22:22.396Z,66.24
2018-04-08T02:23:22.456Z,66.56
2018-04-08T02:24:22.515Z,66.91
2018-04-08T02:25:22.585Z,67.68
2018-04-08T02:26:22.655Z,67.10
2018-04-08T02:27:22.712Z,67.20
2018-04-08T02:28:22.772Z,66.91
2018-04-08T02:29:22.836Z,66.82
2018-04-08T02:30:22.903Z,68.24
2018-04-08T02:31:22.973Z,67.29
2018-04-08T02:32:23.033Z,67.58
2018-04-08T02:33:23.093Z,67.48
2018-04-08T02:34:23.152Z,68.24
2018-04-08T02:35:23.216Z,68.34
2018-04-08T02:36:23.280Z,68.63
2018-04-08T02:37:23.373Z,67.96
2018-04-08T02:38:23.412Z,67.68
2018-04-08T02:39:23.469Z,67.77
2018-04-08T02:40:23.533Z,67.39
2018-04-08T02:41:23.603Z,67.77
2018-04-08T02:42:23.672Z,67.48
2018-04-08T02:43:23.734Z,68.82
2018-04-08T02:44:23.789Z,67.48
2018-04-08T02:45:23.854Z,68.15
2018-04-08T02:46:23.917Z,66.82
2018-04-08T02:47:23.990Z,66.82
2018-04-08T02:48:24.049Z,66.91
2018-04-08T02:49:24.112Z,67.29
2018-04-08T02:50:24.173Z,68.44
2018-04-08T02:51:24.241Z,67.48
2018-04-08T02:52:24.322Z,66.63
2018-04-08T02:53:24.362Z,66.91
2018-04-08T02:54:24.427Z,67.39
2018-04-08T02:55:24.493Z,66.91
2018-04-08T02:56:24.553Z,66.63
2018-04-08T02:57:24.621Z,67.10
2018-04-08T02:58:24.693Z,66.53
2018-04-08T02:59:24.741Z,66.05
2018-04-08T03:00:24.805Z,66.44
2018-04-08T03:01:24.871Z,67.20
2018-04-08T03:02:24.942Z,66.66
2018-04-08T03:03:25.003Z,66.94
2018-04-08T03:04:25.062Z,67.14
2018-04-08T03:05:25.128Z,66.09
2018-04-08T03:06:25.185Z,65.89
2018-04-08T03:07:25.649Z,67.14
2018-04-08T03:08:25.314Z,65.80
2018-04-08T03:09:25.388Z,65.33
2018-04-08T03:10:25.442Z,64.56
2018-04-08T03:11:25.510Z,64.37
2018-04-08T03:12:25.571Z,64.56
2018-04-08T03:13:25.742Z,64.59
2018-04-08T03:14:25.694Z,64.09
2018-04-08T03:15:25.758Z,64.21
2018-04-08T03:16:25.825Z,64.31
2018-04-08T03:17:25.897Z,63.73
2018-04-08T03:18:25.989Z,64.78
2018-04-08T03:19:26.021Z,63.83
2018-04-08T03:20:26.094Z,63.35
2018-04-08T03:21:26.170Z,64.02
2018-04-08T03:22:26.206Z,63.64
2018-04-08T03:23:26.623Z,64.12
2018-04-08T03:24:26.349Z,64.21
2018-04-08T03:25:26.395Z,66.12
2018-04-08T03:26:26.458Z,64.88
2018-04-08T03:27:26.538Z,64.59
2018-04-08T03:28:26.598Z,64.40
2018-04-08T03:29:26.778Z,66.31
2018-04-08T03:30:26.711Z,64.69
2018-04-08T03:31:26.804Z,64.97
2018-04-08T03:32:26.874Z,65.55
2018-04-08T03:33:26.906Z,64.69
2018-04-08T03:34:27.012Z,64.59
2018-04-08T03:35:27.066Z,64.78
2018-04-08T03:36:27.111Z,65.36
2018-04-08T03:37:27.170Z,64.02
2018-04-08T03:38:27.230Z,63.73
2018-04-08T03:39:27.703Z,64.21
2018-04-08T03:40:27.367Z,63.64
2018-04-08T03:41:27.422Z,62.40
2018-04-08T03:42:27.476Z,62.02
2018-04-08T03:43:27.534Z,60.97
2018-04-08T03:44:27.626Z,61.25
2018-04-08T03:45:27.699Z,60.90
2018-04-08T03:46:29.278Z,60.52
2018-04-08T03:47:27.799Z,60.24
2018-04-08T03:48:27.867Z,59.76
2018-04-08T03:49:27.919Z,58.99
2018-04-08T03:50:27.998Z,59.59
2018-04-08T03:51:28.067Z,58.83
2018-04-08T03:52:28.123Z,58.26
2018-04-08T03:53:28.179Z,59.22
2018-04-08T03:54:28.259Z,58.36
2018-04-08T03:55:28.339Z,58.36
2018-04-08T03:56:28.387Z,58.36
2018-04-08T03:57:28.455Z,58.45
2018-04-08T03:58:28.499Z,58.54
2018-04-08T03:59:28.608Z,57.50
2018-04-08T04:00:28.643Z,57.97
2018-04-08T04:01:28.716Z,57.97
2018-04-08T04:02:28.760Z,57.59
2018-04-08T04:03:28.820Z,57.50
2018-04-08T04:04:28.891Z,57.31
2018-04-08T04:05:28.979Z,57.87
2018-04-08T04:06:29.035Z,58.45
2018-04-08T04:07:29.072Z,58.45
2018-04-08T04:08:29.172Z,57.78
2018-04-08T04:09:29.204Z,57.59
2018-04-08T04:10:29.432Z,58.07
2018-04-08T04:11:29.324Z,58.26
2018-04-08T04:12:29.388Z,58.99
2018-04-08T04:13:29.463Z,59.09
2018-04-08T04:14:29.528Z,58.80
2018-04-08T04:15:29.618Z,59.38
2018-04-08T04:16:29.678Z,59.76
2018-04-08T04:17:29.732Z,59.47
2018-04-08T04:18:29.788Z,60.81
2018-04-08T04:19:29.836Z,60.11
2018-04-08T04:20:29.932Z,60.87
2018-04-08T04:21:29.992Z,60.97
2018-04-08T04:22:30.025Z,61.44
2018-04-08T04:23:30.108Z,61.07
2018-04-08T04:24:30.148Z,61.73
2018-04-08T04:25:30.248Z,62.30
2018-04-08T04:26:30.276Z,62.40
2018-04-08T04:27:30.352Z,62.88
2018-04-08T04:28:30.444Z,63.35
2018-04-08T04:29:30.552Z,62.94
2018-04-08T04:30:30.589Z,63.42
2018-04-08T04:31:30.636Z,63.80
2018-04-08T04:32:30.697Z,64.65
2018-04-08T04:33:30.729Z,64.37
2018-04-08T04:34:30.804Z,64.18
2018-04-08T04:35:30.880Z,65.42
2018-04-08T04:36:30.929Z,65.33
2018-04-08T04:37:30.983Z,64.85
2018-04-08T04:38:31.065Z,65.42
2018-04-08T04:39:31.132Z,65.89
2018-04-08T04:40:31.193Z,65.39
2018-04-08T04:41:31.241Z,65.86
2018-04-08T04:42:31.341Z,65.58
2018-04-08T04:43:31.361Z,65.96
2018-04-08T04:44:31.424Z,66.53
2018-04-08T04:45:31.525Z,66.44
2018-04-08T04:46:31.565Z,67.10
2018-04-08T04:47:31.617Z,67.48
2018-04-08T04:48:31.709Z,67.86
2018-04-08T04:49:31.741Z,69.01
2018-04-08T04:50:31.850Z,68.53
2018-04-08T04:51:31.905Z,68.34
2018-04-08T04:52:32.041Z,68.24
2018-04-08T04:53:32.029Z,68.34
2018-04-08T04:54:32.157Z,68.34
2018-04-08T04:55:32.150Z,67.48
2018-04-08T04:56:32.197Z,68.88
2018-04-08T04:57:32.257Z,69.45
2018-04-08T04:58:32.314Z,69.35
2018-04-08T04:59:32.382Z,68.88
2018-04-08T05:00:32.449Z,68.50
2018-04-08T05:01:32.522Z,68.78
2018-04-08T05:02:32.586Z,69.83
2018-04-08T05:03:32.638Z,68.98
2018-04-08T05:04:32.694Z,68.12
2018-04-08T05:05:32.762Z,68.50
2018-04-08T05:06:32.833Z,68.69
2018-04-08T05:07:32.886Z,68.69
2018-04-08T05:08:32.958Z,68.98
2018-04-08T05:09:33.022Z,68.88
2018-04-08T05:10:33.097Z,68.30
2018-04-08T05:11:33.142Z,68.40
2018-04-08T05:12:33.211Z,68.88
2018-04-08T05:13:33.270Z,68.78
2018-04-08T05:14:33.338Z,69.26
2018-04-08T05:15:33.426Z,68.24
2018-04-08T05:16:33.474Z,68.30
2018-04-08T05:17:33.539Z,67.74
2018-04-08T05:18:33.590Z,68.53
2018-04-08T05:19:33.652Z,67.29
2018-04-08T05:20:33.727Z,67.58
2018-04-08T05:21:33.791Z,67.20
2018-04-08T05:22:33.867Z,67.68
2018-04-08T05:23:33.910Z,66.91
2018-04-08T05:24:33.958Z,67.00
2018-04-08T05:25:34.050Z,67.48
2018-04-08T05:26:34.095Z,67.48
2018-04-08T05:27:34.158Z,67.29
2018-04-08T05:28:34.239Z,68.05
2018-04-08T05:29:34.287Z,69.20
2018-04-08T05:30:34.354Z,68.34
2018-04-08T05:31:34.423Z,68.24
2018-04-08T05:32:34.484Z,68.53
2018-04-08T05:33:34.539Z,67.48
2018-04-08T05:34:34.603Z,67.86
2018-04-08T05:35:34.875Z,68.53
2018-04-08T05:36:34.735Z,67.68
2018-04-08T05:37:34.787Z,67.58
2018-04-08T05:38:34.871Z,67.20
2018-04-08T05:39:34.921Z,67.00
2018-04-08T05:40:35.035Z,68.53
2018-04-08T05:41:35.067Z,68.91
2018-04-08T05:42:35.119Z,67.96
2018-04-08T05:43:35.182Z,67.48
2018-04-08T05:44:35.235Z,67.48
2018-04-08T05:45:35.295Z,67.48
2018-04-08T05:46:35.375Z,68.82
2018-04-08T05:47:35.511Z,69.68
2018-04-08T05:48:35.503Z,70.34
2018-04-08T05:49:35.555Z,69.29
2018-04-08T05:50:35.638Z,69.58
2018-04-08T05:51:35.687Z,69.87
2018-04-08T05:52:35.979Z,70.72
2018-04-08T05:53:35.969Z,69.29
2018-04-08T05:54:36.027Z,69.58
2018-04-08T05:55:35.958Z,69.87
2018-04-08T05:56:36.036Z,69.33
2018-04-08T05:57:36.063Z,68.72
2018-04-08T05:58:36.140Z,67.52
2018-04-08T05:59:36.212Z,68.28
2018-04-08T06:00:36.300Z,67.33
2018-04-08T06:01:36.348Z,66.28
2018-04-08T06:02:36.376Z,66.38
2018-04-08T06:03:36.444Z,64.75
2018-04-08T06:04:36.500Z,62.97
2018-04-08T06:05:36.568Z,62.21
2018-04-08T06:06:36.639Z,62.05
2018-04-08T06:07:36.724Z,61.47
2018-04-08T06:08:36.756Z,61.95
2018-04-08T06:09:36.825Z,61.29
2018-04-08T06:10:36.880Z,60.61
2018-04-08T06:11:36.956Z,60.24
2018-04-08T06:12:37.028Z,59.66
2018-04-08T06:13:37.079Z,59.41
2018-04-08T06:14:37.168Z,59.59
2018-04-08T06:15:37.196Z,59.12
2018-04-08T06:16:37.428Z,59.34
2018-04-08T06:17:37.378Z,58.29
2018-04-08T06:18:37.400Z,58.00
2018-04-08T06:19:37.460Z,57.62
2018-04-08T06:20:37.521Z,57.43
2018-04-08T06:21:37.592Z,56.85
2018-04-08T06:22:37.660Z,56.85
2018-04-08T06:23:37.720Z,56.85
2018-04-08T06:24:37.777Z,56.38
2018-04-08T06:25:37.842Z,56.02
2018-04-08T06:26:37.916Z,56.21
2018-04-08T06:27:37.976Z,55.26
2018-04-08T06:28:38.036Z,55.26
2018-04-08T06:29:38.104Z,55.07
2018-04-08T06:30:38.165Z,54.71
2018-04-08T06:31:38.233Z,54.43
2018-04-08T06:32:38.289Z,54.90
2018-04-08T06:33:38.353Z,55.19
2018-04-08T06:34:38.427Z,54.52
2018-04-08T06:35:38.483Z,53.75
2018-04-08T06:36:38.561Z,52.83
2018-04-08T06:37:38.625Z,52.25
2018-04-08T06:38:38.685Z,51.20
2018-04-08T06:39:38.741Z,51.10
2018-04-08T06:40:38.808Z,50.56
2018-04-08T06:41:38.873Z,50.07
2018-04-08T06:42:38.957Z,49.31
2018-04-08T06:43:39.057Z,49.14
2018-04-08T06:44:39.065Z,48.75
2018-04-08T06:45:39.129Z,48.66
2018-04-08T06:46:39.225Z,48.95
2018-04-08T06:47:39.268Z,48.95
2018-04-08T06:48:39.326Z,48.75
2018-04-08T06:49:39.385Z,49.14
2018-04-08T06:50:39.449Z,49.14
2018-04-08T06:51:39.521Z,48.97
2018-04-08T06:52:39.585Z,49.26
2018-04-08T06:53:39.642Z,48.88
2018-04-08T06:54:39.710Z,48.59
2018-04-08T06:55:39.781Z,48.30
2018-04-08T06:56:39.845Z,48.21
2018-04-08T06:57:39.910Z,47.92
2018-04-08T06:58:40.003Z,47.73
2018-04-08T06:59:40.034Z,47.92
2018-04-08T07:00:40.102Z,47.63
2018-04-08T07:01:40.177Z,48.30
2018-04-08T07:02:40.239Z,47.63
2018-04-08T07:03:40.306Z,48.02
2018-04-08T07:04:40.358Z,47.92
2018-04-08T07:05:40.426Z,47.63
2018-04-08T07:06:40.494Z,48.02
2018-04-08T07:07:40.562Z,48.30
2018-04-08T07:08:40.618Z,47.92
2018-04-08T07:09:40.686Z,48.02
2018-04-08T07:10:40.754Z,47.92
2018-04-08T07:11:40.830Z,47.73
2018-04-08T07:12:40.887Z,47.92
2018-04-08T07:13:40.950Z,47.63
2018-04-08T07:14:41.014Z,47.53
2018-04-08T07:15:41.083Z,47.73
2018-04-08T07:16:41.170Z,47.53
2018-04-08T07:17:41.206Z,47.25
2018-04-08T07:18:41.274Z,47.63
2018-04-08T07:19:41.342Z,46.86
2018-04-08T07:20:41.406Z,46.77
2018-04-08T07:21:41.487Z,46.67
2018-04-08T07:22:41.543Z,46.70
2018-04-08T07:23:41.603Z,46.60
2018-04-08T07:24:41.669Z,47.46
2018-04-08T07:25:41.731Z,46.60
2018-04-08T07:26:41.803Z,46.89
2018-04-08T07:27:41.871Z,47.66
2018-04-08T07:28:41.943Z,47.56
2018-04-08T07:29:41.995Z,47.66
2018-04-08T07:30:42.058Z,48.04
2018-04-08T07:31:42.246Z,48.23
2018-04-08T07:32:42.207Z,49.00
2018-04-08T07:33:42.255Z,48.71
2018-04-08T07:34:42.319Z,47.75
2018-04-08T07:35:42.387Z,48.33
2018-04-08T07:36:42.467Z,48.71
2018-04-08T07:37:42.532Z,48.33
2018-04-08T07:38:42.583Z,47.85
2018-04-08T07:39:42.647Z,48.13
2018-04-08T07:40:42.719Z,47.85
2018-04-08T07:41:42.812Z,47.94
2018-04-08T07:42:42.851Z,47.66
2018-04-08T07:43:42.911Z,47.46
2018-04-08T07:44:42.975Z,47.75
2018-04-08T07:45:43.047Z,47.94
2018-04-08T07:46:43.231Z,47.75
2018-04-08T07:47:43.176Z,47.39
2018-04-08T07:48:43.248Z,46.72
2018-04-08T07:49:43.307Z,46.34
2018-04-08T07:50:43.372Z,46.34
2018-04-08T07:51:43.447Z,46.43
2018-04-08T07:52:43.515Z,46.53
2018-04-08T07:53:43.572Z,46.24
2018-04-08T07:54:43.632Z,45.37
2018-04-08T07:55:43.704Z,45.47
2018-04-08T07:56:43.772Z,44.92
2018-04-08T07:57:43.841Z,44.82
2018-04-08T07:58:43.896Z,44.92
2018-04-08T07:59:43.964Z,45.01
2018-04-08T08:00:44.028Z,43.87
2018-04-08T08:01:44.164Z,43.00
2018-04-08T08:02:44.162Z,43.57
2018-04-08T08:03:44.237Z,43.21
2018-04-08T08:04:44.293Z,43.12
2018-04-08T08:05:44.366Z,42.83
2018-04-08T08:06:44.432Z,43.31
2018-04-08T08:07:44.496Z,43.02
2018-04-08T08:08:44.552Z,43.21
2018-04-08T08:09:44.625Z,42.54
2018-04-08T08:10:44.688Z,42.25
2018-04-08T08:11:44.770Z,41.99
2018-04-08T08:12:44.828Z,41.70
2018-04-08T08:13:44.888Z,41.60
2018-04-08T08:14:44.953Z,41.31
2018-04-08T08:15:45.051Z,41.22
2018-04-08T08:16:45.401Z,40.25
2018-04-08T08:17:45.156Z,40.45
2018-04-08T08:18:45.216Z,40.18
2018-04-08T08:19:45.284Z,40.47
2018-04-08T08:20:45.357Z,40.56
2018-04-08T08:21:45.425Z,40.11
2018-04-08T08:22:45.516Z,38.47
2018-04-08T08:23:45.553Z,38.49
2018-04-08T08:24:45.625Z,38.29
2018-04-08T08:25:45.689Z,38.60
2018-04-08T08:26:45.873Z,36.58
2018-04-08T08:27:45.833Z,35.64
2018-04-08T08:28:45.886Z,35.64
2018-04-08T08:29:45.961Z,35.17
2018-04-08T08:30:46.018Z,34.98
2018-04-08T08:31:46.117Z,35.36
2018-04-08T08:32:46.155Z,34.90
2018-04-08T08:33:46.226Z,34.52
2018-04-08T08:34:46.290Z,34.78
2018-04-08T08:35:46.357Z,34.01
2018-04-08T08:36:46.429Z,34.01
2018-04-08T08:37:46.506Z,34.09
2018-04-08T08:38:46.557Z,34.29
2018-04-08T08:39:46.626Z,34.77
2018-04-08T08:40:46.701Z,35.25
2018-04-08T08:41:46.786Z,35.64
2018-04-08T08:42:46.842Z,35.54
2018-04-08T08:43:46.902Z,36.21
2018-04-08T08:44:46.969Z,35.24
2018-04-08T08:45:47.034Z,35.81
2018-04-08T08:46:47.117Z,35.33
2018-04-08T08:47:47.170Z,35.81
2018-04-08T08:48:47.237Z,35.14
2018-04-08T08:49:47.305Z,36.10
2018-04-08T08:50:47.374Z,36.00
2018-04-08T08:51:47.454Z,35.91
2018-04-08T08:52:47.526Z,35.33
2018-04-08T08:53:47.580Z,35.81
2018-04-08T08:54:47.707Z,35.16
2018-04-08T08:55:47.739Z,35.35
2018-04-08T08:56:47.798Z,35.54
2018-04-08T08:57:47.858Z,34.59
2018-04-08T08:58:47.918Z,35.27
2018-04-08T08:59:47.987Z,34.59
2018-04-08T09:00:48.059Z,34.61
2018-04-08T09:01:48.235Z,34.52
2018-04-08T09:02:48.190Z,35.59
2018-04-08T09:03:48.266Z,34.82
2018-04-08T09:04:48.326Z,34.84
2018-04-08T09:05:48.410Z,33.60
2018-04-08T09:06:48.508Z,32.54
2018-04-08T09:07:48.538Z,32.73
2018-04-08T09:08:48.602Z,31.86
2018-04-08T09:09:48.676Z,31.65
2018-04-08T09:10:48.738Z,31.96
2018-04-08T09:11:48.815Z,31.18
2018-04-08T09:12:48.884Z,31.12
2018-04-08T09:13:48.947Z,30.82
2018-04-08T09:14:49.015Z,30.65
2018-04-08T09:15:49.083Z,31.05
2018-04-08T09:16:49.187Z,29.81
2018-04-08T09:17:49.223Z,29.81
2018-04-08T09:18:49.291Z,28.55
2018-04-08T09:19:49.371Z,28.96
2018-04-08T09:20:49.431Z,27.91
2018-04-08T09:21:49.507Z,27.62
2018-04-08T09:22:49.575Z,26.46
2018-04-08T09:23:49.652Z,27.72
2018-04-08T09:24:50.127Z,26.96
2018-04-08T09:25:49.785Z,26.28
2018-04-08T09:26:50.259Z,26.17
2018-04-08T09:27:49.936Z,26.56
2018-04-08T09:28:49.999Z,27.03
2018-04-08T09:29:50.100Z,27.51
2018-04-08T09:30:50.140Z,26.46
2018-04-08T09:31:50.279Z,27.03
2018-04-08T09:32:50.284Z,27.33
2018-04-08T09:33:50.347Z,27.33
2018-04-08T09:34:51.272Z,26.53
2018-04-08T09:35:50.492Z,27.50
2018-04-08T09:36:50.572Z,27.78
2018-04-08T09:37:50.644Z,28.94
2018-04-08T09:38:50.704Z,28.73
2018-04-08T09:39:50.780Z,29.90
2018-04-08T09:40:50.848Z,29.99
2018-04-08T09:41:50.930Z,29.88
2018-04-08T09:42:50.996Z,30.75
2018-04-08T09:43:51.064Z,30.94
2018-04-08T09:44:51.132Z,29.88
2018-04-08T09:45:51.204Z,30.75
2018-04-08T09:46:51.280Z,29.67
2018-04-08T09:47:51.844Z,29.85
2018-04-08T09:48:51.428Z,30.72
2018-04-08T09:49:51.492Z,31.78
2018-04-08T09:50:51.576Z,31.10
2018-04-08T09:51:51.649Z,30.82
2018-04-08T09:52:51.716Z,30.62
2018-04-08T09:53:51.929Z,30.73
2018-04-08T09:54:51.844Z,31.40
2018-04-08T09:55:51.916Z,31.70
2018-04-08T09:56:51.992Z,31.22
2018-04-08T09:57:52.061Z,30.94
2018-04-08T09:58:52.169Z,30.86
2018-04-08T09:59:52.201Z,29.83
2018-04-08T10:00:52.281Z,28.47
2018-04-08T10:01:52.345Z,27.61
2018-04-08T10:02:52.414Z,26.93
2018-04-08T10:03:52.496Z,27.03
2018-04-08T10:04:52.589Z,26.45
2018-04-08T10:05:52.631Z,27.81
2018-04-08T10:06:52.701Z,28.58
2018-04-08T10:07:52.769Z,29.48
2018-04-08T10:08:52.849Z,28.80
2018-04-08T10:09:52.925Z,29.00
2018-04-08T10:10:52.994Z,29.00
2018-04-08T10:11:53.066Z,27.53
2018-04-08T10:12:53.130Z,27.53
2018-04-08T10:13:53.442Z,28.59
2018-04-08T10:14:53.281Z,27.71
2018-04-08T10:15:53.346Z,27.79
2018-04-08T10:16:53.413Z,28.17
2018-04-08T10:17:53.489Z,27.96
2018-04-08T10:18:53.569Z,29.01
2018-04-08T10:19:53.642Z,29.78
2018-04-08T10:20:53.718Z,30.36
2018-04-08T10:21:53.783Z,30.88
2018-04-08T10:22:53.846Z,29.33
2018-04-08T10:23:53.931Z,29.71
2018-04-08T10:24:54.047Z,30.49
2018-04-08T10:25:54.062Z,31.76
2018-04-08T10:26:54.134Z,29.44
2018-04-08T10:27:54.206Z,30.04
2018-04-08T10:28:54.282Z,27.51
2018-04-08T10:29:54.382Z,27.15
2018-04-08T10:30:54.422Z,27.56
2018-04-08T10:31:54.498Z,27.37
2018-04-08T10:32:54.562Z,25.71
2018-04-08T10:33:54.634Z,25.71
2018-04-08T10:34:54.727Z,25.68
2018-04-08T10:35:54.794Z,25.88
2018-04-08T10:36:54.855Z,26.93
2018-04-08T10:37:54.922Z,27.13
2018-04-08T10:38:54.998Z,27.61
2018-04-08T10:39:55.190Z,26.64
2018-04-08T10:40:55.138Z,26.35
2018-04-08T10:41:55.212Z,26.45
2018-04-08T10:42:55.286Z,26.46
2018-04-08T10:43:55.354Z,25.79
2018-04-08T10:44:55.435Z,26.29
2018-04-08T10:45:55.506Z,25.71
2018-04-08T10:46:55.575Z,25.63
2018-04-08T10:47:55.643Z,25.74
2018-04-08T10:48:55.820Z,25.05
2018-04-08T10:49:55.795Z,24.49
2018-04-08T10:50:55.862Z,24.10
2018-04-08T10:51:55.931Z,24.88
2018-04-08T10:52:56.003Z,25.37
2018-04-08T10:53:56.079Z,24.50
2018-04-08T10:54:56.459Z,24.79
2018-04-08T10:55:56.219Z,24.79
2018-04-08T10:56:56.295Z,24.49
2018-04-08T10:57:56.367Z,25.25
2018-04-08T10:58:56.443Z,26.31
2018-04-08T10:59:56.520Z,26.98
2018-04-08T11:00:56.591Z,25.63
2018-04-08T11:01:56.659Z,26.00
2018-04-08T11:02:56.735Z,26.20
2018-04-08T11:03:56.820Z,26.39
2018-04-08T11:04:56.892Z,25.53
2018-04-08T11:05:56.964Z,24.67
2018-04-08T11:06:57.027Z,25.93
2018-04-08T11:07:57.087Z,25.54
2018-04-08T11:08:57.172Z,25.75
2018-04-08T11:09:57.255Z,24.10
2018-04-08T11:10:57.312Z,23.80
2018-04-08T11:11:57.384Z,23.32
2018-04-08T11:12:57.460Z,24.68
2018-04-08T11:13:57.532Z,25.36
2018-04-08T11:14:57.607Z,25.64
2018-04-08T11:15:57.684Z,25.35
2018-04-08T11:16:57.767Z,25.25
2018-04-08T11:17:57.831Z,24.77
2018-04-08T11:18:57.896Z,25.35
2018-04-08T11:19:57.984Z,24.67
2018-04-08T11:20:58.048Z,24.56
2018-04-08T11:21:58.116Z,26.60
2018-04-08T11:22:58.192Z,24.46
2018-04-08T11:23:58.268Z,24.76
2018-04-08T11:24:58.336Z,25.43
2018-04-08T11:25:58.576Z,26.31
2018-04-08T11:26:58.480Z,25.14
2018-04-08T11:27:58.560Z,25.04
2018-04-08T11:28:58.628Z,25.53
2018-04-08T11:29:58.704Z,24.56
2018-04-08T11:30:58.780Z,24.56
2018-04-08T11:31:58.856Z,25.74
2018-04-08T11:32:58.924Z,25.64
2018-04-08T11:33:59.004Z,25.05
2018-04-08T11:34:59.068Z,25.64
2018-04-08T11:35:59.353Z,25.25
2018-04-08T11:36:59.216Z,23.70
2018-04-08T11:37:59.302Z,24.37
2018-04-08T11:38:59.361Z,24.37
2018-04-08T11:39:59.437Z,25.71
2018-04-08T11:40:59.521Z,25.60
2018-04-08T11:41:59.593Z,25.68
2018-04-08T11:42:59.657Z,25.88
2018-04-08T11:43:59.729Z,25.29
2018-04-08T11:44:59.804Z,27.43
2018-04-08T11:45:59.885Z,26.27
2018-04-08T11:46:59.961Z,25.79
2018-04-08T11:48:00.021Z,24.93
2018-04-08T11:49:00.109Z,23.48
2018-04-08T11:50:00.173Z,23.88
2018-04-08T11:51:00.272Z,23.10
2018-04-08T11:52:00.321Z,23.00
2018-04-08T11:53:00.389Z,23.30
2018-04-08T11:54:00.465Z,25.15
2018-04-08T11:55:00.533Z,25.54
2018-04-08T11:56:00.641Z,24.38
2018-04-08T11:57:00.989Z,25.07
2018-04-08T11:58:00.757Z,24.69
2018-04-08T11:59:00.833Z,23.33
2018-04-08T12:00:00.906Z,22.66
2018-04-08T12:01:00.977Z,24.51
2018-04-08T12:02:01.072Z,24.12
2018-04-08T12:03:01.154Z,23.43
2018-04-08T12:04:01.197Z,24.30
2018-04-08T12:05:01.274Z,25.67
2018-04-08T12:06:01.349Z,25.76
2018-04-08T12:07:01.451Z,24.29
2018-04-08T12:08:01.534Z,24.88
2018-04-08T12:09:01.570Z,24.58
2018-04-08T12:10:01.647Z,25.08
2018-04-08T12:11:01.714Z,24.69
2018-04-08T12:12:01.803Z,23.43
2018-04-08T12:13:01.870Z,22.83
2018-04-08T12:14:01.942Z,22.55
2018-04-08T12:15:02.038Z,24.40
2018-04-08T12:16:02.086Z,25.67
2018-04-08T12:17:02.202Z,26.75
2018-04-08T12:18:02.250Z,22.86
2018-04-08T12:19:02.306Z,22.48
2018-04-08T12:20:02.391Z,22.58
2018-04-08T12:21:02.475Z,23.54
2018-04-08T12:22:02.570Z,23.43
2018-04-08T12:23:02.614Z,23.90
2018-04-08T12:24:02.694Z,24.97
2018-04-08T12:25:02.767Z,25.08
2018-04-08T12:26:02.827Z,24.40
2018-04-08T12:27:02.930Z,22.76
2018-04-08T12:28:03.006Z,23.83
2018-04-08T12:29:03.059Z,23.73
2018-04-08T12:30:03.127Z,22.85
2018-04-08T12:31:03.198Z,23.04
2018-04-08T12:32:03.458Z,24.39
2018-04-08T12:33:03.346Z,25.46
2018-04-08T12:34:03.423Z,23.71
2018-04-08T12:35:03.502Z,24.11
2018-04-08T12:36:03.575Z,24.11
2018-04-08T12:37:03.662Z,23.43
2018-04-08T12:38:03.731Z,23.62
2018-04-08T12:39:03.791Z,22.94
2018-04-08T12:40:03.879Z,22.75
2018-04-08T12:41:03.951Z,23.43
2018-04-08T12:42:04.027Z,23.24
2018-04-08T12:43:04.103Z,22.76
2018-04-08T12:44:04.175Z,22.47
2018-04-08T12:45:04.239Z,21.50
2018-04-08T12:46:04.332Z,21.60
2018-04-08T12:47:04.559Z,22.09
2018-04-08T12:48:04.464Z,22.58
2018-04-08T12:49:04.559Z,23.35
2018-04-08T12:50:04.615Z,22.28
2018-04-08T12:51:04.700Z,21.50
2018-04-08T12:52:04.773Z,21.30
2018-04-08T12:53:04.839Z,21.02